sensor_id;sensor_type;location;lat;lon;timestamp;temperature;humidity
53045;DHT22;38930;52.766;6.884;2023-07-28T00:01:02;18.00;99.90
53045;DHT22;38930;52.766;6.884;2023-07-28T00:03:28;18.00;99.90
53045;DHT22;38930;52.766;6.884;2023-07-28T00:05:54;17.90;99.90
53045;DHT22;38930;52.766;6.884;2023-07-28T00:08:19;17.90;99.90
53045;DHT22;38930;52.766;6.884;2023-07-28T00:10:45;18.00;99.90
53045;DHT22;38930;52.766;6.884;2023-07-28T00:13:10;17.90;99.90
53045;DHT22;38930;52.766;6.884;2023-07-28T00:15:36;17.90;99.90
53045;DHT22;38930;52.766;6.884;2023-07-28T00:18:02;17.90;99.90
53045;DHT22;38930;52.766;6.884;2023-07-28T00:20:28;17.90;99.90
53045;DHT22;38930;52.766;6.884;2023-07-28T00:22:53;18.00;99.90
53045;DHT22;38930;52.766;6.884;2023-07-28T00:25:19;17.90;99.90
53045;DHT22;38930;52.766;6.884;2023-07-28T00:27:45;17.90;99.90
53045;DHT22;38930;52.766;6.884;2023-07-28T00:30:11;17.90;99.90
53045;DHT22;38930;52.766;6.884;2023-07-28T00:32:37;18.00;99.90
53045;DHT22;38930;52.766;6.884;2023-07-28T00:35:03;17.90;99.90
53045;DHT22;38930;52.766;6.884;2023-07-28T00:37:29;18.00;99.90
53045;DHT22;38930;52.766;6.884;2023-07-28T00:39:55;17.90;99.90
53045;DHT22;38930;52.766;6.884;2023-07-28T00:42:20;18.00;99.90
53045;DHT22;38930;52.766;6.884;2023-07-28T00:44:46;17.90;99.90
53045;DHT22;38930;52.766;6.884;2023-07-28T00:47:11;17.90;99.90
53045;DHT22;38930;52.766;6.884;2023-07-28T00:49:39;17.90;99.90
53045;DHT22;38930;52.766;6.884;2023-07-28T00:52:07;17.90;99.90
53045;DHT22;38930;52.766;6.884;2023-07-28T00:54:33;17.90;99.90
53045;DHT22;38930;52.766;6.884;2023-07-28T00:56:59;17.90;99.90
53045;DHT22;38930;52.766;6.884;2023-07-28T00:59:26;17.90;99.90
53045;DHT22;38930;52.766;6.884;2023-07-28T01:01:52;17.90;99.90
53045;DHT22;38930;52.766;6.884;2023-07-28T01:04:18;18.00;99.90
53045;DHT22;38930;52.766;6.884;2023-07-28T01:06:53;17.90;99.90
53045;DHT22;38930;52.766;6.884;2023-07-28T01:09:26;17.90;99.90
53045;DHT22;38930;52.766;6.884;2023-07-28T01:11:58;17.90;99.90
53045;DHT22;38930;52.766;6.884;2023-07-28T01:14:25;17.90;99.90
53045;DHT22;38930;52.766;6.884;2023-07-28T01:16:50;17.90;99.90
53045;DHT22;38930;52.766;6.884;2023-07-28T01:19:17;17.90;99.90
53045;DHT22;38930;52.766;6.884;2023-07-28T01:21:48;17.90;99.90
53045;DHT22;38930;52.766;6.884;2023-07-28T01:26:52;17.90;99.90
53045;DHT22;38930;52.766;6.884;2023-07-28T01:29:19;17.90;99.90
53045;DHT22;38930;52.766;6.884;2023-07-28T01:31:48;17.90;99.90
53045;DHT22;38930;52.766;6.884;2023-07-28T01:34:14;17.90;99.90
53045;DHT22;38930;52.766;6.884;2023-07-28T01:36:39;17.90;99.90
53045;DHT22;38930;52.766;6.884;2023-07-28T01:39:05;17.90;99.90
53045;DHT22;38930;52.766;6.884;2023-07-28T01:41:31;17.90;99.90
53045;DHT22;38930;52.766;6.884;2023-07-28T01:43:56;17.90;99.90
53045;DHT22;38930;52.766;6.884;2023-07-28T01:46:22;17.90;99.90
53045;DHT22;38930;52.766;6.884;2023-07-28T01:48:48;17.90;99.90
53045;DHT22;38930;52.766;6.884;2023-07-28T01:51:14;17.90;99.90
53045;DHT22;38930;52.766;6.884;2023-07-28T01:53:39;17.90;99.90
53045;DHT22;38930;52.766;6.884;2023-07-28T01:56:05;17.90;99.90
53045;DHT22;38930;52.766;6.884;2023-07-28T01:58:30;17.90;99.90
53045;DHT22;38930;52.766;6.884;2023-07-28T02:00:56;17.90;99.90
53045;DHT22;38930;52.766;6.884;2023-07-28T02:03:22;17.90;99.90
53045;DHT22;38930;52.766;6.884;2023-07-28T02:05:48;17.90;99.90
53045;DHT22;38930;52.766;6.884;2023-07-28T02:08:13;17.90;99.90
53045;DHT22;38930;52.766;6.884;2023-07-28T02:10:39;17.90;99.90
53045;DHT22;38930;52.766;6.884;2023-07-28T02:13:04;17.80;99.90
53045;DHT22;38930;52.766;6.884;2023-07-28T02:15:30;17.90;99.90
53045;DHT22;38930;52.766;6.884;2023-07-28T02:17:56;17.80;99.90
53045;DHT22;38930;52.766;6.884;2023-07-28T02:20:21;17.90;99.90
53045;DHT22;38930;52.766;6.884;2023-07-28T02:22:47;17.80;99.90
53045;DHT22;38930;52.766;6.884;2023-07-28T02:25:13;17.80;99.90
53045;DHT22;38930;52.766;6.884;2023-07-28T02:27:38;17.90;99.90
53045;DHT22;38930;52.766;6.884;2023-07-28T02:30:05;17.90;99.90
53045;DHT22;38930;52.766;6.884;2023-07-28T02:32:31;17.90;99.90
53045;DHT22;38930;52.766;6.884;2023-07-28T02:34:57;17.90;99.90
53045;DHT22;38930;52.766;6.884;2023-07-28T02:37:24;17.90;99.90
53045;DHT22;38930;52.766;6.884;2023-07-28T02:39:50;17.90;99.90
53045;DHT22;38930;52.766;6.884;2023-07-28T02:42:16;17.90;99.90
53045;DHT22;38930;52.766;6.884;2023-07-28T02:44:41;17.90;99.90
53045;DHT22;38930;52.766;6.884;2023-07-28T02:47:07;17.90;99.90
53045;DHT22;38930;52.766;6.884;2023-07-28T02:49:33;17.90;99.90
53045;DHT22;38930;52.766;6.884;2023-07-28T02:51:59;17.90;99.90
53045;DHT22;38930;52.766;6.884;2023-07-28T02:54:24;17.90;99.90
53045;DHT22;38930;52.766;6.884;2023-07-28T02:56:51;17.90;99.90
53045;DHT22;38930;52.766;6.884;2023-07-28T02:59:17;17.90;99.90
53045;DHT22;38930;52.766;6.884;2023-07-28T03:01:43;17.90;99.90
53045;DHT22;38930;52.766;6.884;2023-07-28T03:04:08;17.90;99.90
53045;DHT22;38930;52.766;6.884;2023-07-28T03:06:34;17.90;99.90
53045;DHT22;38930;52.766;6.884;2023-07-28T03:08:59;17.90;99.90
53045;DHT22;38930;52.766;6.884;2023-07-28T03:11:25;17.90;99.90
53045;DHT22;38930;52.766;6.884;2023-07-28T03:13:51;17.90;99.90
53045;DHT22;38930;52.766;6.884;2023-07-28T03:16:16;17.90;99.90
53045;DHT22;38930;52.766;6.884;2023-07-28T03:18:42;17.90;99.90
53045;DHT22;38930;52.766;6.884;2023-07-28T03:21:09;17.90;99.90
53045;DHT22;38930;52.766;6.884;2023-07-28T03:23:35;17.90;99.90
53045;DHT22;38930;52.766;6.884;2023-07-28T03:26:00;17.90;99.90
53045;DHT22;38930;52.766;6.884;2023-07-28T03:28:26;17.90;99.90
53045;DHT22;38930;52.766;6.884;2023-07-28T03:30:52;17.90;99.90
53045;DHT22;38930;52.766;6.884;2023-07-28T03:33:17;17.90;99.90
53045;DHT22;38930;52.766;6.884;2023-07-28T03:35:43;17.90;99.90
53045;DHT22;38930;52.766;6.884;2023-07-28T03:38:08;17.90;99.90
53045;DHT22;38930;52.766;6.884;2023-07-28T03:40:34;17.90;99.90
53045;DHT22;38930;52.766;6.884;2023-07-28T03:43:00;17.90;99.90
53045;DHT22;38930;52.766;6.884;2023-07-28T03:45:26;17.90;99.90
53045;DHT22;38930;52.766;6.884;2023-07-28T03:47:51;17.90;99.90
53045;DHT22;38930;52.766;6.884;2023-07-28T03:50:17;17.90;99.90
53045;DHT22;38930;52.766;6.884;2023-07-28T03:52:43;17.90;99.90
53045;DHT22;38930;52.766;6.884;2023-07-28T03:55:08;17.90;99.90
53045;DHT22;38930;52.766;6.884;2023-07-28T03:57:34;17.90;99.90
53045;DHT22;38930;52.766;6.884;2023-07-28T04:00:00;17.90;99.90
53045;DHT22;38930;52.766;6.884;2023-07-28T04:02:25;17.90;99.90
53045;DHT22;38930;52.766;6.884;2023-07-28T04:04:54;17.90;99.90
53045;DHT22;38930;52.766;6.884;2023-07-28T04:07:20;17.90;99.90
53045;DHT22;38930;52.766;6.884;2023-07-28T04:09:46;17.90;99.90
53045;DHT22;38930;52.766;6.884;2023-07-28T04:12:12;17.90;99.90
53045;DHT22;38930;52.766;6.884;2023-07-28T04:14:37;17.90;99.90
53045;DHT22;38930;52.766;6.884;2023-07-28T04:17:03;17.90;99.90
53045;DHT22;38930;52.766;6.884;2023-07-28T04:19:29;17.90;99.90
53045;DHT22;38930;52.766;6.884;2023-07-28T04:21:56;17.90;99.90
53045;DHT22;38930;52.766;6.884;2023-07-28T04:24:22;18.00;99.90
53045;DHT22;38930;52.766;6.884;2023-07-28T04:26:47;17.90;99.90
53045;DHT22;38930;52.766;6.884;2023-07-28T04:29:16;17.90;99.90
53045;DHT22;38930;52.766;6.884;2023-07-28T04:31:42;17.90;99.90
53045;DHT22;38930;52.766;6.884;2023-07-28T04:34:07;17.90;99.90
53045;DHT22;38930;52.766;6.884;2023-07-28T04:36:33;17.90;99.90
53045;DHT22;38930;52.766;6.884;2023-07-28T04:38:59;18.00;99.90
53045;DHT22;38930;52.766;6.884;2023-07-28T04:41:24;17.90;99.90
53045;DHT22;38930;52.766;6.884;2023-07-28T04:43:50;17.90;99.90
53045;DHT22;38930;52.766;6.884;2023-07-28T04:46:16;17.90;99.90
53045;DHT22;38930;52.766;6.884;2023-07-28T04:48:42;17.90;99.90
53045;DHT22;38930;52.766;6.884;2023-07-28T04:51:07;17.90;99.90
53045;DHT22;38930;52.766;6.884;2023-07-28T04:53:33;18.00;99.90
53045;DHT22;38930;52.766;6.884;2023-07-28T04:55:58;18.00;99.90
53045;DHT22;38930;52.766;6.884;2023-07-28T04:58:24;18.00;99.90
53045;DHT22;38930;52.766;6.884;2023-07-28T05:00:50;18.00;99.90
53045;DHT22;38930;52.766;6.884;2023-07-28T05:03:15;18.00;99.90
53045;DHT22;38930;52.766;6.884;2023-07-28T05:05:44;18.00;99.90
53045;DHT22;38930;52.766;6.884;2023-07-28T05:08:10;18.00;99.90
53045;DHT22;38930;52.766;6.884;2023-07-28T05:10:36;18.10;99.90
53045;DHT22;38930;52.766;6.884;2023-07-28T05:13:02;18.00;99.90
53045;DHT22;38930;52.766;6.884;2023-07-28T05:15:29;18.00;99.90
53045;DHT22;38930;52.766;6.884;2023-07-28T05:17:55;18.00;99.90
53045;DHT22;38930;52.766;6.884;2023-07-28T05:20:21;18.00;99.90
53045;DHT22;38930;52.766;6.884;2023-07-28T05:22:47;18.00;99.90
53045;DHT22;38930;52.766;6.884;2023-07-28T05:25:12;18.00;99.90
53045;DHT22;38930;52.766;6.884;2023-07-28T05:27:38;18.00;99.90
53045;DHT22;38930;52.766;6.884;2023-07-28T05:30:04;18.10;99.90
53045;DHT22;38930;52.766;6.884;2023-07-28T05:32:29;18.00;99.90
53045;DHT22;38930;52.766;6.884;2023-07-28T05:34:55;18.00;99.90
53045;DHT22;38930;52.766;6.884;2023-07-28T05:37:21;18.00;99.90
53045;DHT22;38930;52.766;6.884;2023-07-28T05:39:46;18.00;99.90
53045;DHT22;38930;52.766;6.884;2023-07-28T05:42:12;18.10;99.90
53045;DHT22;38930;52.766;6.884;2023-07-28T05:44:37;18.10;99.90
53045;DHT22;38930;52.766;6.884;2023-07-28T05:47:03;18.10;99.90
53045;DHT22;38930;52.766;6.884;2023-07-28T05:49:30;18.10;99.90
53045;DHT22;38930;52.766;6.884;2023-07-28T05:51:56;18.10;99.90
53045;DHT22;38930;52.766;6.884;2023-07-28T05:54:21;18.10;99.90
53045;DHT22;38930;52.766;6.884;2023-07-28T05:56:47;18.10;99.90
53045;DHT22;38930;52.766;6.884;2023-07-28T05:59:13;18.10;99.90
53045;DHT22;38930;52.766;6.884;2023-07-28T06:01:38;18.10;99.90
53045;DHT22;38930;52.766;6.884;2023-07-28T06:04:04;18.10;99.90
53045;DHT22;38930;52.766;6.884;2023-07-28T06:06:30;18.10;99.90
53045;DHT22;38930;52.766;6.884;2023-07-28T06:08:55;18.20;99.90
53045;DHT22;38930;52.766;6.884;2023-07-28T06:11:21;18.20;99.90
53045;DHT22;38930;52.766;6.884;2023-07-28T06:13:47;18.10;99.90
53045;DHT22;38930;52.766;6.884;2023-07-28T06:16:14;18.20;99.90
53045;DHT22;38930;52.766;6.884;2023-07-28T06:18:39;18.20;99.90
53045;DHT22;38930;52.766;6.884;2023-07-28T06:21:05;18.20;99.90
53045;DHT22;38930;52.766;6.884;2023-07-28T06:23:31;18.30;99.90
53045;DHT22;38930;52.766;6.884;2023-07-28T06:25:56;18.30;99.90
53045;DHT22;38930;52.766;6.884;2023-07-28T06:28:22;18.30;99.90
53045;DHT22;38930;52.766;6.884;2023-07-28T06:30:53;18.40;99.90
53045;DHT22;38930;52.766;6.884;2023-07-28T06:33:19;18.50;99.90
53045;DHT22;38930;52.766;6.884;2023-07-28T06:35:45;18.60;99.90
53045;DHT22;38930;52.766;6.884;2023-07-28T06:38:10;18.50;99.90
53045;DHT22;38930;52.766;6.884;2023-07-28T06:40:36;18.60;99.90
53045;DHT22;38930;52.766;6.884;2023-07-28T06:43:02;18.70;99.90
53045;DHT22;38930;52.766;6.884;2023-07-28T06:45:27;18.80;99.90
53045;DHT22;38930;52.766;6.884;2023-07-28T06:47:53;18.80;99.90
53045;DHT22;38930;52.766;6.884;2023-07-28T06:50:19;18.90;99.90
53045;DHT22;38930;52.766;6.884;2023-07-28T06:52:45;19.10;99.90
53045;DHT22;38930;52.766;6.884;2023-07-28T06:55:12;19.00;99.90
53045;DHT22;38930;52.766;6.884;2023-07-28T06:57:37;19.10;99.90
53045;DHT22;38930;52.766;6.884;2023-07-28T07:00:03;19.20;99.90
53045;DHT22;38930;52.766;6.884;2023-07-28T07:02:29;19.20;99.90
53045;DHT22;38930;52.766;6.884;2023-07-28T07:04:54;19.30;99.90
53045;DHT22;38930;52.766;6.884;2023-07-28T07:07:20;19.30;99.90
53045;DHT22;38930;52.766;6.884;2023-07-28T07:09:46;19.30;99.90
53045;DHT22;38930;52.766;6.884;2023-07-28T07:12:12;19.30;99.90
53045;DHT22;38930;52.766;6.884;2023-07-28T07:14:37;19.40;99.90
53045;DHT22;38930;52.766;6.884;2023-07-28T07:17:03;19.40;99.90
53045;DHT22;38930;52.766;6.884;2023-07-28T07:19:29;19.40;99.90
53045;DHT22;38930;52.766;6.884;2023-07-28T07:21:55;19.30;99.90
53045;DHT22;38930;52.766;6.884;2023-07-28T07:24:21;19.30;99.90
53045;DHT22;38930;52.766;6.884;2023-07-28T07:26:46;19.30;99.90
53045;DHT22;38930;52.766;6.884;2023-07-28T07:29:12;19.30;99.90
53045;DHT22;38930;52.766;6.884;2023-07-28T07:31:38;19.40;99.90
53045;DHT22;38930;52.766;6.884;2023-07-28T07:34:04;19.40;99.90
53045;DHT22;38930;52.766;6.884;2023-07-28T07:36:30;19.40;99.90
53045;DHT22;38930;52.766;6.884;2023-07-28T07:38:56;19.50;99.90
53045;DHT22;38930;52.766;6.884;2023-07-28T07:41:22;19.60;99.90
53045;DHT22;38930;52.766;6.884;2023-07-28T07:43:49;19.60;99.90
53045;DHT22;38930;52.766;6.884;2023-07-28T07:46:16;19.70;99.90
53045;DHT22;38930;52.766;6.884;2023-07-28T07:48:41;19.80;99.90
53045;DHT22;38930;52.766;6.884;2023-07-28T07:51:08;19.90;99.90
53045;DHT22;38930;52.766;6.884;2023-07-28T07:53:34;20.00;99.90
53045;DHT22;38930;52.766;6.884;2023-07-28T07:56:02;20.00;99.90
53045;DHT22;38930;52.766;6.884;2023-07-28T07:58:28;19.90;99.90
53045;DHT22;38930;52.766;6.884;2023-07-28T08:00:54;19.80;99.90
53045;DHT22;38930;52.766;6.884;2023-07-28T08:03:20;19.80;99.90
53045;DHT22;38930;52.766;6.884;2023-07-28T08:05:46;19.80;99.90
53045;DHT22;38930;52.766;6.884;2023-07-28T08:08:11;19.90;99.90
53045;DHT22;38930;52.766;6.884;2023-07-28T08:10:39;20.00;99.90
53045;DHT22;38930;52.766;6.884;2023-07-28T08:13:04;20.00;99.90
53045;DHT22;38930;52.766;6.884;2023-07-28T08:15:30;20.10;99.90
53045;DHT22;38930;52.766;6.884;2023-07-28T08:17:56;20.20;99.90
53045;DHT22;38930;52.766;6.884;2023-07-28T08:20:21;20.30;99.90
53045;DHT22;38930;52.766;6.884;2023-07-28T08:22:47;20.40;99.90
53045;DHT22;38930;52.766;6.884;2023-07-28T08:25:12;20.50;99.90
53045;DHT22;38930;52.766;6.884;2023-07-28T08:27:38;20.50;99.90
53045;DHT22;38930;52.766;6.884;2023-07-28T08:30:04;20.60;99.90
53045;DHT22;38930;52.766;6.884;2023-07-28T08:32:30;20.70;99.90
53045;DHT22;38930;52.766;6.884;2023-07-28T08:34:56;20.70;99.90
53045;DHT22;38930;52.766;6.884;2023-07-28T08:37:22;20.80;99.90
53045;DHT22;38930;52.766;6.884;2023-07-28T08:39:48;20.90;99.90
53045;DHT22;38930;52.766;6.884;2023-07-28T08:42:13;21.00;99.90
53045;DHT22;38930;52.766;6.884;2023-07-28T08:44:39;21.10;99.90
53045;DHT22;38930;52.766;6.884;2023-07-28T08:47:05;21.10;99.90
53045;DHT22;38930;52.766;6.884;2023-07-28T08:49:31;21.20;99.90
53045;DHT22;38930;52.766;6.884;2023-07-28T08:51:59;21.30;99.90
53045;DHT22;38930;52.766;6.884;2023-07-28T08:54:25;21.50;99.90
53045;DHT22;38930;52.766;6.884;2023-07-28T08:56:51;21.70;99.90
53045;DHT22;38930;52.766;6.884;2023-07-28T08:59:23;21.80;99.90
53045;DHT22;38930;52.766;6.884;2023-07-28T09:01:52;21.90;99.90
53045;DHT22;38930;52.766;6.884;2023-07-28T09:04:18;21.90;99.90
53045;DHT22;38930;52.766;6.884;2023-07-28T09:06:48;21.90;99.90
53045;DHT22;38930;52.766;6.884;2023-07-28T09:09:15;21.80;99.90
53045;DHT22;38930;52.766;6.884;2023-07-28T09:11:48;21.80;99.90
53045;DHT22;38930;52.766;6.884;2023-07-28T09:14:16;21.90;99.90
53045;DHT22;38930;52.766;6.884;2023-07-28T09:16:43;22.00;99.90
53045;DHT22;38930;52.766;6.884;2023-07-28T09:19:09;22.10;99.90
53045;DHT22;38930;52.766;6.884;2023-07-28T09:21:36;22.20;99.90
53045;DHT22;38930;52.766;6.884;2023-07-28T09:24:06;22.30;99.90
53045;DHT22;38930;52.766;6.884;2023-07-28T09:26:46;22.20;99.90
53045;DHT22;38930;52.766;6.884;2023-07-28T09:29:17;22.20;99.90
53045;DHT22;38930;52.766;6.884;2023-07-28T09:31:47;22.20;99.90
53045;DHT22;38930;52.766;6.884;2023-07-28T09:34:24;22.20;99.90
53045;DHT22;38930;52.766;6.884;2023-07-28T09:36:53;22.30;99.90
53045;DHT22;38930;52.766;6.884;2023-07-28T09:39:19;22.50;99.90
53045;DHT22;38930;52.766;6.884;2023-07-28T09:41:46;22.70;99.90
53045;DHT22;38930;52.766;6.884;2023-07-28T09:44:12;22.90;99.90
53045;DHT22;38930;52.766;6.884;2023-07-28T09:46:49;23.10;99.90
53045;DHT22;38930;52.766;6.884;2023-07-28T09:49:21;23.10;99.90
53045;DHT22;38930;52.766;6.884;2023-07-28T09:51:49;23.00;99.90
53045;DHT22;38930;52.766;6.884;2023-07-28T09:54:29;22.90;99.90
53045;DHT22;38930;52.766;6.884;2023-07-28T09:56:59;22.80;99.90
53045;DHT22;38930;52.766;6.884;2023-07-28T09:59:38;22.90;99.90
53045;DHT22;38930;52.766;6.884;2023-07-28T10:02:05;22.90;99.90
53045;DHT22;38930;52.766;6.884;2023-07-28T10:04:32;23.00;99.90
53045;DHT22;38930;52.766;6.884;2023-07-28T10:06:58;22.90;99.90
53045;DHT22;38930;52.766;6.884;2023-07-28T10:09:26;22.80;99.90
53045;DHT22;38930;52.766;6.884;2023-07-28T10:11:55;22.60;99.90
53045;DHT22;38930;52.766;6.884;2023-07-28T10:16:53;22.50;99.90
53045;DHT22;38930;52.766;6.884;2023-07-28T10:19:20;22.70;99.90
53045;DHT22;38930;52.766;6.884;2023-07-28T10:21:46;22.80;99.90
53045;DHT22;38930;52.766;6.884;2023-07-28T10:24:11;23.10;99.90
53045;DHT22;38930;52.766;6.884;2023-07-28T10:26:40;23.10;99.90
53045;DHT22;38930;52.766;6.884;2023-07-28T10:29:14;23.10;99.90
53045;DHT22;38930;52.766;6.884;2023-07-28T10:31:54;23.10;99.90
53045;DHT22;38930;52.766;6.884;2023-07-28T10:34:21;23.00;99.90
53045;DHT22;38930;52.766;6.884;2023-07-28T10:36:59;22.80;99.90
53045;DHT22;38930;52.766;6.884;2023-07-28T10:39:25;22.70;99.90
53045;DHT22;38930;52.766;6.884;2023-07-28T10:42:07;22.60;99.90
53045;DHT22;38930;52.766;6.884;2023-07-28T10:44:34;22.60;99.90
53045;DHT22;38930;52.766;6.884;2023-07-28T10:47:00;22.60;99.90
53045;DHT22;38930;52.766;6.884;2023-07-28T10:49:27;22.50;99.90
53045;DHT22;38930;52.766;6.884;2023-07-28T10:51:53;22.50;99.90
53045;DHT22;38930;52.766;6.884;2023-07-28T10:54:19;22.70;99.90
53045;DHT22;38930;52.766;6.884;2023-07-28T10:56:48;23.00;99.90
53045;DHT22;38930;52.766;6.884;2023-07-28T10:59:14;23.10;99.90
53045;DHT22;38930;52.766;6.884;2023-07-28T11:01:41;23.30;99.90
53045;DHT22;38930;52.766;6.884;2023-07-28T11:06:41;23.30;99.90
53045;DHT22;38930;52.766;6.884;2023-07-28T11:09:08;23.10;99.90
53045;DHT22;38930;52.766;6.884;2023-07-28T11:11:36;22.90;99.90
53045;DHT22;38930;52.766;6.884;2023-07-28T11:14:05;22.70;99.90
53045;DHT22;38930;52.766;6.884;2023-07-28T11:16:36;22.70;99.90
53045;DHT22;38930;52.766;6.884;2023-07-28T11:19:03;22.70;99.90
53045;DHT22;38930;52.766;6.884;2023-07-28T11:21:42;22.80;99.90
53045;DHT22;38930;52.766;6.884;2023-07-28T11:24:08;22.80;99.90
53045;DHT22;38930;52.766;6.884;2023-07-28T11:26:35;22.80;99.90
53045;DHT22;38930;52.766;6.884;2023-07-28T11:29:01;22.90;99.90
53045;DHT22;38930;52.766;6.884;2023-07-28T11:31:27;22.80;99.90
53045;DHT22;38930;52.766;6.884;2023-07-28T11:33:53;22.60;99.90
53045;DHT22;38930;52.766;6.884;2023-07-28T11:36:26;22.50;99.90
53045;DHT22;38930;52.766;6.884;2023-07-28T11:38:54;22.30;99.90
53045;DHT22;38930;52.766;6.884;2023-07-28T11:41:21;22.20;99.90
53045;DHT22;38930;52.766;6.884;2023-07-28T11:43:51;22.20;99.90
53045;DHT22;38930;52.766;6.884;2023-07-28T11:46:36;22.20;99.90
53045;DHT22;38930;52.766;6.884;2023-07-28T11:49:10;22.20;99.90
53045;DHT22;38930;52.766;6.884;2023-07-28T11:51:38;22.20;99.90
53045;DHT22;38930;52.766;6.884;2023-07-28T11:54:05;22.10;99.90
53045;DHT22;38930;52.766;6.884;2023-07-28T11:56:31;22.00;99.90
53045;DHT22;38930;52.766;6.884;2023-07-28T11:58:58;22.00;99.90
53045;DHT22;38930;52.766;6.884;2023-07-28T12:01:23;22.00;99.90
53045;DHT22;38930;52.766;6.884;2023-07-28T12:03:49;22.10;99.90
53045;DHT22;38930;52.766;6.884;2023-07-28T12:06:15;22.10;99.90
53045;DHT22;38930;52.766;6.884;2023-07-28T12:08:41;22.20;99.90
53045;DHT22;38930;52.766;6.884;2023-07-28T12:11:13;22.30;99.90
53045;DHT22;38930;52.766;6.884;2023-07-28T12:13:51;22.50;99.90
53045;DHT22;38930;52.766;6.884;2023-07-28T12:16:39;22.60;99.90
53045;DHT22;38930;52.766;6.884;2023-07-28T12:19:06;22.90;99.90
53045;DHT22;38930;52.766;6.884;2023-07-28T12:21:31;23.10;99.90
53045;DHT22;38930;52.766;6.884;2023-07-28T12:23:57;23.20;99.90
53045;DHT22;38930;52.766;6.884;2023-07-28T12:26:23;23.40;99.90
53045;DHT22;38930;52.766;6.884;2023-07-28T12:28:48;23.60;99.90
53045;DHT22;38930;52.766;6.884;2023-07-28T12:31:14;23.70;99.90
53045;DHT22;38930;52.766;6.884;2023-07-28T12:33:39;23.80;99.90
53045;DHT22;38930;52.766;6.884;2023-07-28T12:36:05;23.90;99.90
53045;DHT22;38930;52.766;6.884;2023-07-28T12:38:31;24.00;99.90
53045;DHT22;38930;52.766;6.884;2023-07-28T12:40:57;24.10;99.90
53045;DHT22;38930;52.766;6.884;2023-07-28T12:43:22;24.20;99.90
53045;DHT22;38930;52.766;6.884;2023-07-28T12:45:50;24.20;99.90
53045;DHT22;38930;52.766;6.884;2023-07-28T12:48:16;24.10;99.90
53045;DHT22;38930;52.766;6.884;2023-07-28T12:50:41;24.20;99.90
53045;DHT22;38930;52.766;6.884;2023-07-28T12:53:07;24.30;99.90
53045;DHT22;38930;52.766;6.884;2023-07-28T12:55:32;24.40;99.90
53045;DHT22;38930;52.766;6.884;2023-07-28T12:58:00;24.50;99.90
53045;DHT22;38930;52.766;6.884;2023-07-28T13:00:26;24.60;99.90
53045;DHT22;38930;52.766;6.884;2023-07-28T13:02:52;24.60;99.90
53045;DHT22;38930;52.766;6.884;2023-07-28T13:05:17;24.70;99.90
53045;DHT22;38930;52.766;6.884;2023-07-28T13:07:43;24.80;99.90
53045;DHT22;38930;52.766;6.884;2023-07-28T13:10:10;24.80;99.90
53045;DHT22;38930;52.766;6.884;2023-07-28T13:12:37;24.90;99.90
53045;DHT22;38930;52.766;6.884;2023-07-28T13:15:03;24.80;99.90
53045;DHT22;38930;52.766;6.884;2023-07-28T13:17:29;24.80;99.90
53045;DHT22;38930;52.766;6.884;2023-07-28T13:19:54;24.70;99.90
53045;DHT22;38930;52.766;6.884;2023-07-28T13:22:22;24.70;99.90
53045;DHT22;38930;52.766;6.884;2023-07-28T13:24:48;24.60;99.90
53045;DHT22;38930;52.766;6.884;2023-07-28T13:27:14;24.50;99.90
53045;DHT22;38930;52.766;6.884;2023-07-28T13:29:39;24.50;99.90
53045;DHT22;38930;52.766;6.884;2023-07-28T13:32:18;24.70;99.90
53045;DHT22;38930;52.766;6.884;2023-07-28T13:34:43;24.80;99.90
53045;DHT22;38930;52.766;6.884;2023-07-28T13:37:09;24.90;99.90
53045;DHT22;38930;52.766;6.884;2023-07-28T13:39:35;25.00;99.90
53045;DHT22;38930;52.766;6.884;2023-07-28T13:42:01;25.10;99.90
53045;DHT22;38930;52.766;6.884;2023-07-28T13:44:26;25.10;99.90
53045;DHT22;38930;52.766;6.884;2023-07-28T13:46:52;25.10;99.90
53045;DHT22;38930;52.766;6.884;2023-07-28T13:49:17;25.20;99.90
53045;DHT22;38930;52.766;6.884;2023-07-28T13:51:43;25.30;99.90
53045;DHT22;38930;52.766;6.884;2023-07-28T13:54:10;25.30;99.90
53045;DHT22;38930;52.766;6.884;2023-07-28T13:56:36;25.30;99.90
53045;DHT22;38930;52.766;6.884;2023-07-28T13:59:02;25.40;99.90
53045;DHT22;38930;52.766;6.884;2023-07-28T14:01:27;25.40;99.90
53045;DHT22;38930;52.766;6.884;2023-07-28T14:03:53;25.40;99.90
53045;DHT22;38930;52.766;6.884;2023-07-28T14:06:19;25.40;99.90
53045;DHT22;38930;52.766;6.884;2023-07-28T14:08:44;25.40;99.90
53045;DHT22;38930;52.766;6.884;2023-07-28T14:11:10;25.40;99.90
53045;DHT22;38930;52.766;6.884;2023-07-28T14:13:36;25.30;99.90
53045;DHT22;38930;52.766;6.884;2023-07-28T14:16:01;25.40;99.90
53045;DHT22;38930;52.766;6.884;2023-07-28T14:18:27;25.40;99.90
53045;DHT22;38930;52.766;6.884;2023-07-28T14:20:53;25.40;99.90
53045;DHT22;38930;52.766;6.884;2023-07-28T14:23:26;25.60;99.90
53045;DHT22;38930;52.766;6.884;2023-07-28T14:25:53;25.50;99.90
53045;DHT22;38930;52.766;6.884;2023-07-28T14:28:19;25.40;99.90
53045;DHT22;38930;52.766;6.884;2023-07-28T14:30:45;25.40;99.90
53045;DHT22;38930;52.766;6.884;2023-07-28T14:33:15;25.40;99.90
53045;DHT22;38930;52.766;6.884;2023-07-28T14:35:42;25.30;99.90
53045;DHT22;38930;52.766;6.884;2023-07-28T14:38:08;25.20;99.90
53045;DHT22;38930;52.766;6.884;2023-07-28T14:40:35;25.20;99.90
53045;DHT22;38930;52.766;6.884;2023-07-28T14:43:02;25.10;99.90
53045;DHT22;38930;52.766;6.884;2023-07-28T14:45:28;25.10;99.90
53045;DHT22;38930;52.766;6.884;2023-07-28T14:47:53;25.20;99.90
53045;DHT22;38930;52.766;6.884;2023-07-28T14:50:20;25.20;99.90
53045;DHT22;38930;52.766;6.884;2023-07-28T14:52:46;25.10;99.90
53045;DHT22;38930;52.766;6.884;2023-07-28T14:55:12;25.10;99.90
53045;DHT22;38930;52.766;6.884;2023-07-28T14:57:37;25.00;99.90
53045;DHT22;38930;52.766;6.884;2023-07-28T15:00:03;24.90;99.90
53045;DHT22;38930;52.766;6.884;2023-07-28T15:02:29;24.90;99.90
53045;DHT22;38930;52.766;6.884;2023-07-28T15:04:54;25.00;99.90
53045;DHT22;38930;52.766;6.884;2023-07-28T15:07:20;25.10;99.90
53045;DHT22;38930;52.766;6.884;2023-07-28T15:09:48;25.10;99.90
53045;DHT22;38930;52.766;6.884;2023-07-28T15:12:13;25.10;99.90
53045;DHT22;38930;52.766;6.884;2023-07-28T15:14:39;25.20;99.90
53045;DHT22;38930;52.766;6.884;2023-07-28T15:17:05;25.20;99.90
53045;DHT22;38930;52.766;6.884;2023-07-28T15:19:30;25.20;99.90
53045;DHT22;38930;52.766;6.884;2023-07-28T15:21:56;25.20;99.90
53045;DHT22;38930;52.766;6.884;2023-07-28T15:24:22;25.30;99.90
53045;DHT22;38930;52.766;6.884;2023-07-28T15:26:48;25.30;99.90
53045;DHT22;38930;52.766;6.884;2023-07-28T15:29:15;25.20;99.90
53045;DHT22;38930;52.766;6.884;2023-07-28T15:31:41;25.20;99.90
53045;DHT22;38930;52.766;6.884;2023-07-28T15:34:06;25.20;99.90